createdAt,value
2017-06-16T00:05:47.558Z,42.40
2017-06-16T00:08:14.264Z,42.50
2017-06-16T00:10:40.554Z,43.00
2017-06-16T00:13:06.813Z,43.60
2017-06-16T00:15:34.182Z,44.10
2017-06-16T00:18:00.522Z,44.40
2017-06-16T00:20:28.322Z,44.30
2017-06-16T00:22:54.615Z,44.10
2017-06-16T00:25:21.446Z,44.30
2017-06-16T00:27:50.197Z,44.40
2017-06-16T00:35:13.573Z,45.20
2017-06-16T00:37:39.873Z,44.30
2017-06-16T00:40:06.170Z,44.20
2017-06-16T00:42:32.444Z,44.00
2017-06-16T00:44:59.507Z,44.60
2017-06-16T00:47:25.833Z,44.30
2017-06-16T00:49:52.107Z,44.20
2017-06-16T00:54:46.371Z,45.10
2017-06-16T00:57:13.681Z,44.20
2017-06-16T00:59:39.958Z,44.30
2017-06-16T01:02:06.217Z,44.30
2017-06-16T01:09:30.856Z,44.80
2017-06-16T01:11:58.257Z,44.70
2017-06-16T01:14:24.513Z,45.30
2017-06-16T01:16:51.534Z,45.00
2017-06-16T01:19:17.858Z,46.00
2017-06-16T01:21:44.506Z,46.10
2017-06-16T01:24:11.542Z,46.30
2017-06-16T01:26:39.718Z,47.40
2017-06-16T01:29:06.733Z,47.30
2017-06-16T01:31:33.084Z,47.00
2017-06-16T01:41:23.845Z,46.60
2017-06-16T01:43:50.153Z,47.10
2017-06-16T01:46:16.810Z,46.50
2017-06-16T01:48:43.489Z,47.00
2017-06-16T01:51:10.186Z,46.90
2017-06-16T01:53:36.862Z,47.10
2017-06-16T01:56:03.149Z,46.80
2017-06-16T01:58:30.144Z,46.80
2017-06-16T02:00:56.457Z,47.20
2017-06-16T02:03:22.702Z,47.40
2017-06-16T02:05:48.958Z,47.60
2017-06-16T02:08:16.105Z,48.10
2017-06-16T02:15:39.533Z,47.70
2017-06-16T02:18:06.525Z,49.10
2017-06-16T02:20:32.785Z,47.80
2017-06-16T02:25:27.903Z,47.50
2017-06-16T02:27:54.281Z,47.50
2017-06-16T02:30:21.333Z,47.80
2017-06-16T02:32:47.646Z,47.60
2017-06-16T02:35:13.959Z,47.80
2017-06-16T02:37:40.255Z,47.60
2017-06-16T02:40:06.910Z,48.00
2017-06-16T02:42:33.650Z,48.30
2017-06-16T02:49:55.971Z,48.60
2017-06-16T02:52:22.997Z,47.80
2017-06-16T02:54:49.776Z,47.70
2017-06-16T02:57:16.482Z,48.00
2017-06-16T02:59:43.150Z,48.00
2017-06-16T03:02:09.513Z,48.00
2017-06-16T03:04:35.907Z,48.30
2017-06-16T03:07:02.574Z,48.30
2017-06-16T03:09:28.886Z,48.70
2017-06-16T03:14:23.559Z,48.60
2017-06-16T03:16:50.658Z,49.30
2017-06-16T03:24:23.485Z,49.20
2017-06-16T03:26:51.290Z,48.90
2017-06-16T03:29:17.579Z,48.60
2017-06-16T03:31:44.250Z,49.10
2017-06-16T03:34:10.917Z,49.00
2017-06-16T03:36:37.581Z,48.80
2017-06-16T03:39:04.605Z,49.10
2017-06-16T03:41:37.809Z,49.00
2017-06-16T03:49:04.748Z,49.10
2017-06-16T03:53:59.414Z,49.10
2017-06-16T03:56:27.002Z,49.30
2017-06-16T03:58:53.542Z,49.00
2017-06-16T04:01:20.013Z,49.20
2017-06-16T04:03:46.494Z,49.30
2017-06-16T04:06:13.394Z,49.20
2017-06-16T04:08:39.918Z,49.20
2017-06-16T04:11:07.157Z,49.30
2017-06-16T04:18:31.550Z,49.50
2017-06-16T04:20:58.456Z,49.50
2017-06-16T04:23:25.321Z,49.70
2017-06-16T04:25:51.743Z,49.80
2017-06-16T04:28:18.968Z,51.50
2017-06-16T04:30:45.458Z,49.70
2017-06-16T04:35:40.161Z,49.60
2017-06-16T04:38:06.722Z,49.20
2017-06-16T04:40:33.982Z,49.00
2017-06-16T04:43:00.515Z,47.60
2017-06-16T04:45:27.021Z,44.70
2017-06-16T04:52:50.578Z,36.70
2017-06-16T04:55:17.530Z,35.30
2017-06-16T04:57:44.036Z,35.10
2017-06-16T05:00:10.656Z,31.30
2017-06-16T05:02:38.246Z,30.30
2017-06-16T05:05:04.770Z,28.90
2017-06-16T05:07:32.062Z,27.30
2017-06-16T05:09:58.920Z,26.30
2017-06-16T05:12:26.136Z,25.60
2017-06-16T05:14:53.770Z,24.20
2017-06-16T05:17:20.254Z,24.40
2017-06-16T05:24:43.325Z,27.10
2017-06-16T05:27:09.783Z,26.90
2017-06-16T05:29:36.298Z,25.90
2017-06-16T05:32:03.514Z,25.60
2017-06-16T05:34:30.843Z,26.80
2017-06-16T05:36:58.127Z,27.40
2017-06-16T05:39:25.625Z,28.50
2017-06-16T05:41:52.138Z,29.50
2017-06-16T05:44:18.620Z,29.80
2017-06-16T05:46:45.175Z,31.70
2017-06-16T05:49:13.194Z,33.50
2017-06-16T05:56:36.957Z,35.70
2017-06-16T05:59:04.975Z,38.20
2017-06-16T06:01:31.592Z,38.90
2017-06-16T06:03:58.109Z,38.70
2017-06-16T06:06:24.621Z,39.20
2017-06-16T06:08:51.203Z,40.00
2017-06-16T06:11:18.330Z,39.60
2017-06-16T06:13:45.701Z,40.70
2017-06-16T06:16:12.628Z,41.60
2017-06-16T06:18:39.149Z,42.40
2017-06-16T06:21:05.667Z,42.40
2017-06-16T06:30:56.865Z,43.80
2017-06-16T06:33:23.453Z,43.30
2017-06-16T06:35:50.661Z,43.20
2017-06-16T06:38:17.927Z,42.40
2017-06-16T06:40:44.847Z,42.50
2017-06-16T06:43:11.309Z,42.80
2017-06-16T06:48:07.173Z,43.20
2017-06-16T06:50:34.732Z,42.20
2017-06-16T06:53:01.609Z,42.50
2017-06-16T06:55:28.555Z,42.60
2017-06-16T07:02:53.082Z,42.00
2017-06-16T07:05:20.025Z,42.10
2017-06-16T07:10:15.755Z,42.60
2017-06-16T07:12:43.318Z,41.30
2017-06-16T07:15:09.903Z,41.60
2017-06-16T07:17:36.803Z,42.00
2017-06-16T07:20:04.166Z,41.60
2017-06-16T07:22:30.783Z,41.30
2017-06-16T07:24:58.466Z,39.20
2017-06-16T07:32:22.725Z,39.20
2017-06-16T07:37:18.157Z,40.10
2017-06-16T07:39:45.254Z,40.90
2017-06-16T07:42:11.934Z,40.30
2017-06-16T07:44:38.874Z,41.80
2017-06-16T07:47:06.922Z,40.20
2017-06-16T07:49:33.448Z,41.20
2017-06-16T07:52:00.058Z,41.20
2017-06-16T07:54:29.344Z,41.30
2017-06-16T08:01:52.806Z,41.00
2017-06-16T08:04:19.286Z,40.60
2017-06-16T08:06:51.797Z,41.00
2017-06-16T08:09:18.669Z,40.30
2017-06-16T08:11:45.155Z,39.10
2017-06-16T08:14:11.725Z,40.20
2017-06-16T08:16:38.963Z,40.30
2017-06-16T08:19:05.504Z,39.50
2017-06-16T08:21:33.946Z,38.30
2017-06-16T08:24:00.929Z,39.40
2017-06-16T08:26:27.426Z,39.70
2017-06-16T08:33:50.845Z,39.00
2017-06-16T08:36:18.152Z,40.10
2017-06-16T08:38:45.739Z,39.40
2017-06-16T08:41:12.625Z,40.10
2017-06-16T08:43:39.933Z,39.30
2017-06-16T08:46:06.418Z,39.70
2017-06-16T08:48:32.957Z,38.10
2017-06-16T08:50:59.473Z,37.90
2017-06-16T08:53:25.957Z,36.50
2017-06-16T08:55:52.459Z,33.90
2017-06-16T08:58:19.033Z,34.00
2017-06-16T09:05:42.049Z,36.20
2017-06-16T09:08:09.334Z,33.90
2017-06-16T09:10:35.832Z,35.20
2017-06-16T09:13:03.786Z,34.70
2017-06-16T09:15:30.961Z,35.30
2017-06-16T09:17:57.914Z,36.60
2017-06-16T09:20:28.632Z,36.70
2017-06-16T09:22:55.142Z,37.50
2017-06-16T09:25:22.353Z,37.70
2017-06-16T09:27:48.858Z,37.10
2017-06-16T09:30:16.537Z,36.90
2017-06-16T09:35:17.810Z,35.90
2017-06-16T09:37:44.669Z,36.40
2017-06-16T09:40:11.897Z,36.60
2017-06-16T09:42:38.406Z,37.60
2017-06-16T09:45:04.956Z,35.70
2017-06-16T09:47:31.502Z,34.80
2017-06-16T09:49:58.368Z,35.00
2017-06-16T09:52:26.853Z,36.30
2017-06-16T09:54:54.077Z,33.70
2017-06-16T09:57:21.374Z,34.90
2017-06-16T09:59:47.886Z,35.30
2017-06-16T10:07:14.724Z,35.30
2017-06-16T10:09:41.706Z,35.90
2017-06-16T10:12:09.307Z,35.50
2017-06-16T10:14:36.213Z,36.00
2017-06-16T10:17:03.462Z,36.60
2017-06-16T10:19:31.047Z,36.70
2017-06-16T10:24:28.908Z,34.60
2017-06-16T10:26:55.349Z,34.80
2017-06-16T10:29:22.245Z,34.70
2017-06-16T10:36:50.345Z,34.40
2017-06-16T10:39:17.150Z,34.60
2017-06-16T10:41:44.385Z,34.10
2017-06-16T10:44:12.389Z,33.90
2017-06-16T10:46:39.429Z,34.00
2017-06-16T10:49:05.980Z,33.30
2017-06-16T10:51:38.305Z,33.60
2017-06-16T10:54:05.941Z,33.40
2017-06-16T10:56:32.427Z,33.10
2017-06-16T11:03:56.043Z,34.80
2017-06-16T11:06:22.894Z,34.30
2017-06-16T11:08:52.723Z,34.50
2017-06-16T11:11:20.002Z,35.00
2017-06-16T11:13:46.543Z,35.40
2017-06-16T11:16:13.066Z,34.70
2017-06-16T11:18:39.608Z,33.70
2017-06-16T11:21:06.125Z,34.00
2017-06-16T11:26:01.790Z,34.00
2017-06-16T11:35:53.488Z,33.70
2017-06-16T11:38:20.001Z,33.70
2017-06-16T11:43:15.126Z,35.30
2017-06-16T11:45:42.467Z,34.10
2017-06-16T11:48:09.789Z,32.70
2017-06-16T11:50:36.325Z,31.90
2017-06-16T11:53:03.605Z,33.50
2017-06-16T11:55:30.203Z,33.80
2017-06-16T11:57:57.106Z,32.80
2017-06-16T12:07:49.485Z,32.10
2017-06-16T12:10:16.931Z,32.20
2017-06-16T12:15:11.714Z,32.40
2017-06-16T12:17:39.013Z,31.60
2017-06-16T12:20:05.533Z,31.40
2017-06-16T12:22:32.834Z,32.20
2017-06-16T12:25:00.117Z,32.80
2017-06-16T12:27:26.689Z,31.80
2017-06-16T12:29:55.344Z,30.90
2017-06-16T12:37:18.314Z,30.30
2017-06-16T12:39:44.806Z,31.20
2017-06-16T12:42:12.179Z,30.40
2017-06-16T12:47:07.313Z,29.60
2017-06-16T12:49:33.938Z,30.50
2017-06-16T12:52:00.934Z,29.60
2017-06-16T12:54:27.457Z,28.20
2017-06-16T12:56:54.029Z,29.60
2017-06-16T13:01:48.777Z,29.10
2017-06-16T13:09:12.310Z,29.00
2017-06-16T13:11:38.826Z,29.90
2017-06-16T13:14:05.322Z,28.80
2017-06-16T13:16:32.205Z,29.90
2017-06-16T13:18:58.781Z,30.60
2017-06-16T13:21:26.206Z,29.50
2017-06-16T13:23:52.679Z,29.70
2017-06-16T13:26:19.191Z,29.40
2017-06-16T13:28:45.752Z,30.30
2017-06-16T13:31:12.510Z,28.80
2017-06-16T13:33:39.777Z,28.60
2017-06-16T13:41:03.262Z,28.80
2017-06-16T13:43:29.795Z,28.70
2017-06-16T13:45:56.322Z,30.00
2017-06-16T13:48:23.210Z,30.10
2017-06-16T13:50:50.443Z,29.10
2017-06-16T13:53:18.409Z,30.10
2017-06-16T13:55:45.384Z,28.20
2017-06-16T13:58:12.421Z,28.80
2017-06-16T14:00:39.328Z,27.80
2017-06-16T14:03:06.189Z,28.60
2017-06-16T14:05:33.464Z,30.00
2017-06-16T14:07:59.993Z,30.10
2017-06-16T14:15:23.215Z,28.20
2017-06-16T14:20:18.472Z,27.70
2017-06-16T14:22:46.081Z,28.20
2017-06-16T14:25:12.793Z,30.00
2017-06-16T14:27:39.466Z,28.60
2017-06-16T14:30:06.863Z,27.00
2017-06-16T14:32:33.477Z,26.80
2017-06-16T14:34:59.731Z,26.70
2017-06-16T14:37:26.017Z,26.70
2017-06-16T14:39:52.298Z,27.90
2017-06-16T14:47:15.108Z,27.70
2017-06-16T14:49:42.372Z,28.70
2017-06-16T14:52:09.411Z,28.30
2017-06-16T14:54:36.470Z,28.90
2017-06-16T14:57:03.034Z,29.10
2017-06-16T14:59:30.254Z,29.40
2017-06-16T15:01:57.359Z,31.10
2017-06-16T15:06:52.698Z,30.20
2017-06-16T15:09:19.757Z,31.10
2017-06-16T15:11:46.042Z,31.00
2017-06-16T15:19:09.721Z,30.60
2017-06-16T15:21:36.671Z,29.20
2017-06-16T15:24:02.938Z,30.20
2017-06-16T15:28:58.257Z,30.00
2017-06-16T15:31:26.033Z,29.40
2017-06-16T15:33:52.274Z,29.30
2017-06-16T15:36:18.557Z,30.00
2017-06-16T15:38:45.209Z,30.60
2017-06-16T15:41:12.219Z,30.20
2017-06-16T15:51:02.819Z,31.60
2017-06-16T15:53:29.473Z,31.00
2017-06-16T15:55:56.506Z,30.10
2017-06-16T15:58:23.522Z,30.90
2017-06-16T16:00:49.777Z,30.40
2017-06-16T16:05:44.057Z,31.90
2017-06-16T16:08:10.710Z,32.10
2017-06-16T16:10:37.346Z,31.20
2017-06-16T16:15:31.601Z,31.30
2017-06-16T16:18:02.657Z,30.60
2017-06-16T16:22:57.851Z,31.20
2017-06-16T16:27:53.610Z,30.80
2017-06-16T16:32:51.238Z,31.00
2017-06-16T16:37:47.924Z,31.70
2017-06-16T16:42:42.603Z,32.70
2017-06-16T16:45:09.277Z,32.50
2017-06-16T16:52:34.321Z,32.50
2017-06-16T16:55:01.359Z,33.60
2017-06-16T16:57:28.859Z,33.30
2017-06-16T16:59:55.905Z,33.70
2017-06-16T17:04:50.394Z,33.60
2017-06-16T17:07:17.782Z,33.60
2017-06-16T17:09:44.476Z,32.40
2017-06-16T17:14:38.778Z,33.70
2017-06-16T17:17:05.074Z,33.50
2017-06-16T17:26:56.283Z,32.70
2017-06-16T17:29:23.657Z,32.70
2017-06-16T17:31:54.722Z,32.70
2017-06-16T17:36:49.256Z,32.90
2017-06-16T17:41:45.486Z,34.60
2017-06-16T17:44:16.457Z,33.60
2017-06-16T17:51:39.101Z,34.00
2017-06-16T17:56:39.730Z,32.80
2017-06-16T17:59:07.485Z,34.00
2017-06-16T18:01:33.741Z,34.10
2017-06-16T18:04:00.018Z,33.60
2017-06-16T18:06:26.712Z,34.00
2017-06-16T18:08:53.330Z,34.40
2017-06-16T18:13:47.993Z,35.10
2017-06-16T18:21:10.724Z,35.00
2017-06-16T18:23:38.187Z,34.70
2017-06-16T18:31:04.688Z,34.90
2017-06-16T18:33:33.421Z,35.40
2017-06-16T18:36:00.512Z,36.10
2017-06-16T18:38:26.758Z,35.60
2017-06-16T18:40:53.130Z,35.40
2017-06-16T18:53:11.961Z,34.40
2017-06-16T18:58:06.292Z,35.40
2017-06-16T19:03:00.982Z,35.40
2017-06-16T19:05:27.659Z,35.20
2017-06-16T19:07:53.975Z,35.50
2017-06-16T19:10:20.657Z,34.90
2017-06-16T19:12:48.026Z,35.00
2017-06-16T19:15:14.657Z,34.40
2017-06-16T19:25:06.123Z,35.40
2017-06-16T19:30:00.773Z,34.50
2017-06-16T19:35:07.425Z,35.10
2017-06-16T19:37:35.416Z,36.00
2017-06-16T19:47:27.221Z,35.10
2017-06-16T19:55:06.311Z,35.00
2017-06-16T20:00:02.647Z,35.00
2017-06-16T20:02:30.200Z,35.70
2017-06-16T20:09:54.013Z,35.60
2017-06-16T20:12:21.161Z,35.90
2017-06-16T20:17:15.872Z,36.40
2017-06-16T20:19:43.481Z,36.40
2017-06-16T20:24:39.360Z,36.60
2017-06-16T20:29:33.994Z,37.00
2017-06-16T20:32:00.504Z,36.80
2017-06-16T20:39:24.409Z,37.20
2017-06-16T20:46:47.589Z,37.00
2017-06-16T20:49:15.201Z,36.50
2017-06-16T20:51:42.131Z,36.50
2017-06-16T20:54:09.206Z,36.80
2017-06-16T20:56:36.689Z,36.80
2017-06-16T21:08:58.129Z,37.60
2017-06-16T21:11:24.582Z,36.80
2017-06-16T21:13:51.997Z,36.80
2017-06-16T21:16:20.577Z,36.50
2017-06-16T21:21:18.022Z,37.00
2017-06-16T21:26:12.882Z,37.40
2017-06-16T21:28:40.517Z,37.10
2017-06-16T21:38:31.757Z,37.70
2017-06-16T21:40:58.293Z,37.90
2017-06-16T21:43:25.170Z,38.00
2017-06-16T21:45:52.486Z,37.90
2017-06-16T21:48:19.420Z,37.90
2017-06-16T21:50:46.962Z,38.00
2017-06-16T21:53:13.441Z,37.80
2017-06-16T21:58:08.138Z,38.10
2017-06-16T22:00:35.951Z,38.80
2017-06-16T22:03:02.479Z,38.80
2017-06-16T22:10:32.837Z,38.70
2017-06-16T22:12:59.354Z,39.20
2017-06-16T22:15:26.606Z,39.80
2017-06-16T22:17:53.956Z,39.20
2017-06-16T22:22:48.834Z,39.70
2017-06-16T22:25:15.844Z,39.30
2017-06-16T22:37:35.571Z,40.00
2017-06-16T22:40:02.844Z,40.20
2017-06-16T22:42:29.356Z,40.50
2017-06-16T22:44:56.193Z,40.60
2017-06-16T22:47:22.709Z,40.30
2017-06-16T22:49:50.706Z,41.00
2017-06-16T22:52:17.375Z,41.20
2017-06-16T22:54:44.645Z,40.80
2017-06-16T22:57:11.175Z,40.80
2017-06-16T22:59:39.333Z,40.90
2017-06-16T23:02:05.857Z,41.20
2017-06-16T23:04:32.741Z,41.30
2017-06-16T23:14:24.218Z,41.40
2017-06-16T23:16:51.249Z,41.60
2017-06-16T23:19:18.673Z,41.50
2017-06-16T23:21:45.397Z,41.50
2017-06-16T23:24:11.771Z,41.90
2017-06-16T23:26:38.057Z,41.40
2017-06-16T23:29:04.367Z,42.10
2017-06-16T23:31:30.682Z,41.80
2017-06-16T23:33:56.995Z,42.00
2017-06-16T23:36:24.034Z,42.10
2017-06-16T23:43:47.549Z,42.60
2017-06-16T23:46:14.235Z,42.50
2017-06-16T23:51:08.530Z,42.50
2017-06-16T23:56:03.186Z,42.60
2017-06-16T23:58:30.338Z,42.50
